Latest Weather Observations for Goulburn Airport

IDN60801

Issued at 10:32 pm EST Thursday 3 September 2015 (issued every 30 minutes, with the page automatically refreshed every 10 minutes)

About weather observations | Map of weather stations | Latest weather observations for NSW | Other Formats
Station Details ID: 070330 Name: GOULBURN AIRPORT AWS Lat: -34.81 Lon: 149.73 Height: 640.0 m
Data from the previous 72 hours. | See also: Recent months at Goulburn Airport
Date/Time
EST
Temp
°C
App
Temp
°C
Dew
Point
Rel
Hum
%
Delta-T
°C
Wind Press
QNH
hPa
Press
MSL
hPa
Rain
since 9 am
mm
Dir
 
Spd
km/h
Gust
km/h
Spd
kts
Gust
kts
03/10:30pm 8.0 5.8 6.1 88 0.9 SSW 7 9 4 5 1017.3 1017.3 2.0
03/10:00pm 8.1 5.5 5.9 86 1.0 SSW 9 11 5 6 1017.1 1017.1 2.0
03/09:30pm 7.8 4.7 5.6 86 1.0 SSW 11 17 6 9 1016.8 1016.7 2.0
03/09:00pm 8.1 3.4 5.2 82 1.3 SW 19 22 10 12 1016.0 1016.0 2.0
03/08:30pm 8.5 4.0 6.0 84 1.2 SSW 19 24 10 13 1015.2 1015.1 2.0
03/08:00pm 8.6 5.0 6.7 88 0.9 WSW 15 19 8 10 1014.6 1014.6 2.0
03/07:30pm 8.6 5.5 7.1 90 0.7 WSW 13 17 7 9 1014.2 1014.2 2.0
03/07:00pm 8.8 6.5 7.3 90 0.7 WSW 9 13 5 7 1013.8 1013.7 2.0
03/06:30pm 9.1 5.5 6.7 85 1.2 SW 15 19 8 10 1013.4 1013.3 2.0
03/06:00pm 8.9 5.9 7.5 91 0.7 SW 13 19 7 10 1012.4 1012.3 2.0
03/05:30pm 8.8 6.1 7.4 91 0.7 WSW 11 17 6 9 1011.6 1011.5 2.0
03/05:00pm 8.8 4.3 6.8 87 1.0 WSW 20 26 11 14 1011.0 1010.9 1.4
03/04:30pm 9.4 4.8 6.3 81 1.5 W 20 26 11 14 1010.3 1010.2 0.6
03/04:00pm 10.5 4.9 5.5 71 2.4 W 24 32 13 17 1009.7 1009.6 0.4
03/03:30pm 10.5 4.6 5.7 72 2.3 WSW 26 33 14 18 1009.3 1009.2 0.4
03/03:00pm 9.7 4.5 5.7 76 1.9 WSW 22 28 12 15 1009.0 1008.9 0.4
03/02:30pm 8.9 3.0 5.8 81 1.5 SW 26 35 14 19 1008.4 1008.2 0.4
03/02:00pm 10.1 4.6 7.5 84 1.3 W 26 33 14 18 1007.7 1007.6 0.4
03/01:30pm 9.4 3.1 7.5 88 0.9 W 30 41 16 22 1007.7 1007.6 0.4
03/01:00pm 10.8 3.7 5.3 69 2.6 W 32 43 17 23 1007.3 1007.1 0.0
03/12:30pm 11.7 4.5 5.8 67 2.9 WNW 33 41 18 22 1007.3 1007.1 0.0
03/12:00pm 11.1 3.7 5.0 66 2.9 WNW 33 44 18 24 1007.5 1007.4 0.0
03/11:30am 12.1 5.8 5.5 64 3.2 WNW 28 41 15 22 1007.5 1007.4 0.0
03/11:00am 10.5 4.5 5.1 69 2.6 WNW 26 35 14 19 1007.7 1007.6 0.0
03/10:30am 10.6 4.1 4.9 68 2.7 WNW 28 37 15 20 1007.6 1007.5 0.0
03/10:00am 11.6 5.7 7.3 75 2.2 WNW 28 41 15 22 1007.3 1007.1 0.0
03/09:33am 9.4 3.1 5.8 78 1.7 WNW 28 35 15 19 1007.1 1006.9 0.0
03/09:30am 9.6 3.5 6.5 81 1.5 WNW 28 39 15 21 1007.2 1007.0 0.0
03/09:00am 8.9 2.8 6.7 86 1.1 WNW 28 43 15 23 1007.1 1006.9 7.2
03/08:30am 8.1 3.6 6.9 92 0.6 NW 20 28 11 15 1006.7 1006.5 7.2
03/08:18am 8.4 3.9 6.9 90 0.7 WNW 20 32 11 17 1006.3 1006.2 7.2
03/08:00am 8.4 2.7 6.5 88 0.9 WNW 26 35 14 19 1006.0 1005.8 7.2
03/07:30am 8.5 4.6 7.0 90 0.7 WNW 17 20 9 11 1005.8 1005.6 7.2
03/07:00am 8.1 4.5 6.9 92 0.6 W 15 19 8 10 1005.7 1005.5 7.2
03/06:30am 7.5 5.5 6.9 96 0.3 NW 7 9 4 5 1005.5 1005.3 7.2
03/06:00am 7.4 5.6 7.0 97 0.2 N 6 9 3 5 1005.2 1005.0 7.2
03/05:56am 7.4 5.4 7.0 97 0.2 N 7 9 4 5 1005.2 1005.0 7.2
03/05:37am 7.4 5.4 7.0 97 0.2 N 7 9 4 5 1005.1 1004.9 7.2
03/05:30am 7.5 5.5 7.1 97 0.2 N 7 7 4 4 1005.1 1004.9 7.2
03/05:00am 7.2 5.1 6.8 97 0.2 NNW 7 7 4 4 1005.1 1004.9 7.2
03/04:30am 7.3 5.8 6.9 97 0.2 NNE 4 9 2 5 1005.1 1004.9 7.2
03/04:00am 7.3 5.4 6.7 96 0.3 N 6 9 3 5 1005.2 1005.0 7.2
03/03:30am 7.4 5.3 6.7 95 0.3 N 7 11 4 6 1005.5 1005.3 7.0
03/03:00am 7.5 5.0 6.6 94 0.4 NE 9 11 5 6 1005.8 1005.6 7.0
03/02:59am 7.6 5.1 6.7 94 0.4 NE 9 11 5 6 1005.8 1005.6 7.0
03/02:42am 7.7 5.3 6.8 94 0.4 NNE 9 13 5 7 1006.1 1006.0 7.0
03/02:30am 7.8 4.6 6.9 94 0.4 NE 13 20 7 11 1006.3 1006.2 6.8
03/02:00am 8.0 5.2 6.9 93 0.5 NNE 11 13 6 7 1006.7 1006.5 6.2
03/01:30am 8.1 4.9 6.7 91 0.7 NNE 13 17 7 9 1007.0 1006.8 6.2
03/01:00am 8.3 5.9 7.1 92 0.6 NNE 9 15 5 8 1007.7 1007.6 6.0
03/12:30am 8.1 6.0 6.7 91 0.7 ENE 7 9 4 5 1007.9 1007.8 5.6
03/12:00am 7.9 5.8 6.5 91 0.7 E 7 9 4 5 1008.5 1008.3 4.6
 
Date/Time
EST
Temp
°C
App
Temp
°C
Dew
Point
Rel
Hum
%
Delta-T
°C
Wind Press
QNH
hPa
Press
MSL
hPa
Rain
since 9 am
mm
Dir
 
Spd
km/h
Gust
km/h
Spd
kts
Gust
kts
02/11:30pm 8.0 5.4 6.1 88 0.9 E 9 11 5 6 1009.0 1008.9 2.8
02/11:00pm 8.8 7.5 6.1 83 1.3 N 2 9 1 5 1009.7 1009.6 1.2
02/10:30pm 10.1 5.7 4.5 68 2.6 NNW 17 22 9 12 1010.3 1010.2 0.0
02/10:00pm 9.6 6.6 4.0 68 2.6 NNE 9 13 5 7 1008.7 1008.5 0.0
02/09:30pm 9.5 6.4 3.7 67 2.6 NNE 9 13 5 7 1009.1 1009.0 0.0
02/09:00pm 10.0 6.2 4.0 66 2.8 N 13 19 7 10 1009.6 1009.5 0.0
02/08:30pm 10.8 6.9 3.4 60 3.4 N 13 19 7 10 1010.1 1009.9 0.0
02/08:00pm 10.8 6.8 3.1 59 3.5 NE 13 17 7 9 1009.7 1009.6 0.0
02/07:30pm 10.4 6.7 2.5 58 3.5 N 11 13 6 7 1010.0 1009.8 0.0
02/07:00pm 10.2 7.5 2.8 60 3.3 NNE 6 9 3 5 1010.2 1010.1 0.0
02/06:30pm 9.4 6.7 2.5 62 3.0 E 6 7 3 4 1010.4 1010.3 0.0
02/06:00pm 10.9 7.8 1.2 51 4.2 N 7 7 4 4 1010.5 1010.4 0.0
02/05:30pm 12.8 8.9 0.9 44 5.2 NNW 11 13 6 7 1010.4 1010.3 0.0
02/05:00pm 15.4 11.4 0.8 37 6.5 NNW 11 15 6 8 1010.7 1010.6 0.0
02/04:30pm 16.2 12.1 -0.1 33 7.2 NNW 11 15 6 8 1010.9 1010.8 0.0
02/04:00pm 16.6 12.2 0.3 33 7.3 NW 13 17 7 9 1011.1 1011.0 0.0
02/03:30pm 16.5 11.4 -2.0 28 7.9 NW 15 22 8 12 1011.2 1011.1 0.0
02/03:00pm 16.9 12.0 -0.3 31 7.6 NW 15 20 8 11 1011.2 1011.1 0.0
02/02:30pm 16.6 12.2 -2.5 27 8.1 WNW 11 20 6 11 1011.3 1011.2 0.0
02/02:00pm 16.1 11.8 -1.9 29 7.7 NW 11 19 6 10 1011.9 1011.8 0.0
02/01:30pm 15.8 11.3 0.0 34 7.0 W 13 22 7 12 1012.4 1012.3 0.0
02/01:00pm 16.1 11.8 1.0 36 6.8 WNW 13 19 7 10 1012.9 1012.9 0.0
02/12:30pm 15.4 11.1 0.8 37 6.5 NW 13 20 7 11 1013.7 1013.6 0.0
02/12:00pm 14.5 10.7 1.8 42 5.8 WNW 11 19 6 10 1014.3 1014.3 0.0
02/11:30am 13.6 9.9 2.5 47 5.1 WNW 11 17 6 9 1015.0 1014.9 0.0
02/11:00am 12.9 9.8 3.6 53 4.3 NNW 9 13 5 7 1015.5 1015.4 0.0
02/10:30am 12.3 8.0 3.3 54 4.1 WNW 15 20 8 11 1016.1 1016.1 0.0
02/10:00am 10.8 7.1 2.1 55 3.8 WNW 11 17 6 9 1016.3 1016.3 0.0
02/09:30am 9.8 6.1 4.2 68 2.6 NW 13 22 7 12 1016.7 1016.6 0.0
02/09:00am 7.8 3.9 3.3 73 2.0 NNW 13 17 7 9 1017.0 1017.0 0.2
02/08:30am 6.4 3.3 3.6 82 1.2 NNW 9 13 5 7 1017.0 1017.0 0.0
02/08:00am 4.4 1.2 2.8 89 0.7 NNW 9 11 5 6 1016.9 1016.9 0.0
02/07:30am 2.3 -0.5 2.0 98 0.1 WNW 6 9 3 5 1016.8 1016.7 0.0
02/07:00am -0.5 -2.7 -1.2 95 0.2 CALM 0 6 0 3 1016.7 1016.6 0.0
02/06:30am 0.3 -3.4 -0.1 97 0.2 NW 9 11 5 6 1016.8 1016.7 0.0
02/06:00am -0.5 -5.1 -0.9 97 0.1 NNW 13 17 7 9 1016.7 1016.6 0.0
02/05:30am -0.4 -4.6 -1.0 96 0.2 NW 11 11 6 6 1016.3 1016.3 0.0
02/05:00am -0.3 -2.4 -1.0 95 0.2 CALM 0 0 0 0 1016.1 1016.1 0.0
02/04:30am -0.5 -2.7 -1.3 94 0.3 CALM 0 0 0 0 1015.9 1015.9 0.0
02/04:00am 1.1 -2.5 0.4 95 0.3 NNW 9 11 5 6 1016.1 1016.1 0.0
02/03:30am 0.3 -3.5 -0.5 94 0.3 NW 9 11 5 6 1016.4 1016.4 0.0
02/03:00am 0.9 -2.8 -0.1 93 0.4 NNW 9 11 5 6 1016.4 1016.4 0.0
02/02:30am 0.3 -4.2 -0.3 96 0.2 N 13 13 7 7 1016.7 1016.6 0.0
02/02:00am -0.6 -4.5 -1.4 94 0.3 N 9 13 5 7 1016.9 1016.9 0.0
02/01:30am -0.8 -3.0 -1.9 92 0.4 CALM 0 0 0 0 1017.0 1017.0 0.0
02/01:00am 0.6 -1.4 -0.1 95 0.3 CALM 0 0 0 0 1017.0 1017.0 0.0
02/12:30am 1.2 -1.9 0.2 93 0.4 NNW 6 7 3 4 1017.1 1017.1 0.0
02/12:00am 0.0 -2.5 -0.8 94 0.3 NE 2 7 1 4 1017.1 1017.1 0.0
 
Date/Time
EST
Temp
°C
App
Temp
°C
Dew
Point
Rel
Hum
%
Delta-T
°C
Wind Press
QNH
hPa
Press
MSL
hPa
Rain
since 9 am
mm
Dir
 
Spd
km/h
Gust
km/h
Spd
kts
Gust
kts
01/11:30pm 0.3 -3.1 -0.5 94 0.3 E 7 9 4 5 1016.8 1016.7 0.0
01/11:00pm 0.0 -2.2 -1.4 90 0.5 CALM 0 0 0 0 1016.7 1016.6 0.0
01/10:30pm 0.4 -2.8 -0.6 93 0.4 SSE 6 6 3 3 1016.7 1016.6 0.0
01/10:00pm 1.3 -0.7 0.0 91 0.5 CALM 0 0 0 0 1016.6 1016.5 0.0
01/09:30pm 1.9 -1.2 0.4 90 0.6 ESE 6 9 3 5 1016.1 1016.1 0.0
01/09:00pm 2.8 -0.5 0.0 82 1.1 NNW 7 11 4 6 1016.0 1016.0 0.0
01/08:30pm 4.7 1.3 1.7 81 1.2 NNW 9 11 5 6 1015.9 1015.9 0.0
01/08:00pm 4.3 0.8 1.5 82 1.1 N 9 13 5 7 1015.7 1015.7 0.0
01/07:30pm 5.5 1.7 1.8 77 1.5 NW 11 13 6 7 1015.5 1015.4 0.0
01/07:00pm 6.5 3.1 1.6 71 2.1 NW 9 11 5 6 1015.3 1015.2 0.0
01/06:30pm 7.3 3.9 1.8 68 2.3 NNE 9 11 5 6 1015.1 1015.0 0.0
01/06:00pm 7.9 2.6 2.0 66 2.5 WNW 19 24 10 13 1014.5 1014.5 0.0
01/05:30pm 8.6 4.0 1.5 61 3.0 WNW 15 17 8 9 1014.3 1014.3 0.0
01/05:00pm 10.4 4.8 1.5 54 3.9 WNW 20 26 11 14 1014.1 1014.0 0.0
01/04:30pm 11.1 4.3 1.1 50 4.3 WNW 26 35 14 19 1014.2 1014.2 0.0
01/04:00pm 12.2 5.7 2.4 51 4.4 WNW 26 33 14 18 1014.0 1013.9 0.0
01/03:30pm 12.6 5.6 2.2 49 4.7 W 28 35 15 19 1014.1 1014.0 0.0
01/03:00pm 12.6 5.3 2.5 50 4.6 WNW 30 39 16 21 1014.0 1013.9 0.0
01/02:30pm 12.5 5.4 1.2 46 5.0 W 28 37 15 20 1014.2 1014.2 0.0
01/02:00pm 12.4 5.3 3.4 54 4.2 WNW 30 39 16 21 1014.1 1014.0 0.0
01/01:30pm 12.1 5.2 2.8 53 4.2 WNW 28 35 15 19 1014.1 1014.0 0.0
01/01:00pm 11.9 4.8 3.4 56 3.9 WNW 30 43 16 23 1014.3 1014.3 0.0
01/12:30pm 11.8 4.6 2.8 54 4.1 W 30 39 16 21 1014.6 1014.6 0.0
01/12:00pm 11.6 4.5 3.6 58 3.7 WNW 30 37 16 20 1015.1 1015.0 0.0
01/11:30am 10.9 4.2 3.7 61 3.3 WNW 28 35 15 19 1015.5 1015.4 0.0
01/11:00am 9.7 2.2 3.2 64 2.9 WNW 32 39 17 21 1015.7 1015.7 0.0
01/10:30am 9.6 4.0 3.4 65 2.8 W 22 30 12 16 1015.6 1015.6 0.0
01/10:00am 8.5 3.4 3.1 69 2.4 W 19 24 10 13 1015.7 1015.7 0.0
01/09:30am 7.4 2.3 3.3 75 1.8 W 19 24 10 13 1015.8 1016.6 0.0
01/09:00am 6.7 1.0 2.6 75 1.8 W 22 30 12 16 1015.8 1016.6 0.0
01/08:58am 6.4 0.6 2.3 75 1.7 W 22 30 12 16 1015.8 1016.6 0.0
01/08:30am 6.0 0.7 3.0 81 1.3 WNW 20 26 11 14 1015.9 1016.7 0.0
01/08:00am 5.0 0.2 2.7 85 1.0 W 17 20 9 11 1015.9 1016.7 0.0
01/07:30am 4.1 -0.4 2.1 87 0.8 WNW 15 17 8 9 1015.8 1016.6 0.0
01/07:00am 4.2 0.1 2.2 87 0.8 W 13 17 7 9 1015.7 1016.5 0.0
01/06:30am 4.0 -0.9 2.0 87 0.8 W 17 22 9 12 1015.4 1016.1 0.0
01/06:00am 4.6 -0.2 2.5 86 0.9 WNW 17 22 9 12 1015.1 1015.8 0.0
01/05:30am 4.6 -0.7 2.9 89 0.7 W 20 28 11 15 1015.0 1015.7 0.0
01/05:00am 4.6 0.3 3.3 91 0.6 W 15 19 8 10 1014.9 1015.6 0.0
01/04:30am 4.7 0.8 3.5 92 0.5 W 13 20 7 11 1014.7 1015.5 0.0
01/04:00am 4.6 0.4 3.6 93 0.4 WNW 15 22 8 12 1014.7 1015.5 0.0
01/03:35am 4.0 -0.7 3.4 96 0.3 WNW 17 20 9 11 1014.9 1015.6 0.0
01/03:30am 3.4 -1.0 2.7 95 0.3 WNW 15 20 8 11 1015.0 1015.7 0.0
01/03:00am 2.4 -1.5 1.4 93 0.4 WNW 11 17 6 9 1015.1 1015.8 0.0
01/02:30am 2.8 0.2 1.2 89 0.6 WNW 4 9 2 5 1015.3 1016.0 0.0
01/02:00am 3.4 1.7 1.6 88 0.7 CALM 0 0 0 0 1015.4 1016.1 0.0
01/01:30am 4.2 0.9 2.7 90 0.6 WNW 9 13 5 7 1015.7 1016.5 0.0
01/01:00am 4.3 -0.5 2.5 88 0.8 WNW 17 24 9 13 1015.9 1016.7 0.0
01/12:30am 5.1 -0.2 3.0 86 0.9 WNW 20 26 11 14 1015.9 1016.7 0.0
01/12:27am 5.3 0.0 3.2 86 0.9 WNW 20 30 11 16 1015.9 1016.7 0.0
01/12:00am 5.4 1.8 2.9 84 1.1 W 11 13 6 7 1016.1 1016.9 0.0
 
Date/Time
EST
Temp
°C
App
Temp
°C
Dew
Point
Rel
Hum
%
Delta-T
°C
Wind Press
QNH
hPa
Press
MSL
hPa
Rain
since 9 am
mm
Dir
 
Spd
km/h
Gust
km/h
Spd
kts
Gust
kts
31/11:30pm 5.4 2.5 2.6 82 1.2 W 7 13 4 7 1016.1 1016.9 0.0
31/11:16pm 5.7 3.1 3.0 83 1.2 ENE 6 9 3 5 1016.1 1016.9 0.0
31/11:00pm 5.1 1.8 2.3 82 1.2 ESE 9 13 5 7 1016.1 1016.9 0.0

Other Formats:

Comma delimited format used in spreadsheet applications
http://www.bom.gov.au/fwo/IDN60801/IDN60801.95716.axf

JavaScript Object Notation format (JSON) in row-major order
http://www.bom.gov.au/fwo/IDN60801/IDN60801.95716.json